sensor_id;sensor_type;location;lat;lon;timestamp;temperature;humidity
3866;DHT22;1948;53.250;10.412;2023-06-24T00:01:44;17.80;99.90
3866;DHT22;1948;53.250;10.412;2023-06-24T00:04:12;17.80;99.90
3866;DHT22;1948;53.250;10.412;2023-06-24T00:06:43;17.80;99.90
3866;DHT22;1948;53.250;10.412;2023-06-24T00:09:11;17.80;99.90
3866;DHT22;1948;53.250;10.412;2023-06-24T00:11:40;17.80;99.90
3866;DHT22;1948;53.250;10.412;2023-06-24T00:14:08;17.80;99.90
3866;DHT22;1948;53.250;10.412;2023-06-24T00:16:35;17.80;99.90
3866;DHT22;1948;53.250;10.412;2023-06-24T00:19:03;17.80;99.90
3866;DHT22;1948;53.250;10.412;2023-06-24T00:21:30;17.80;99.90
3866;DHT22;1948;53.250;10.412;2023-06-24T00:23:59;17.80;99.90
3866;DHT22;1948;53.250;10.412;2023-06-24T00:26:29;17.90;99.90
3866;DHT22;1948;53.250;10.412;2023-06-24T00:28:56;17.80;99.90
3866;DHT22;1948;53.250;10.412;2023-06-24T00:31:23;17.90;99.90
3866;DHT22;1948;53.250;10.412;2023-06-24T00:33:50;17.80;99.90
3866;DHT22;1948;53.250;10.412;2023-06-24T00:36:18;17.80;99.90
3866;DHT22;1948;53.250;10.412;2023-06-24T00:38:49;17.70;99.90
3866;DHT22;1948;53.250;10.412;2023-06-24T00:41:17;17.60;99.90
3866;DHT22;1948;53.250;10.412;2023-06-24T00:43:46;17.60;99.90
3866;DHT22;1948;53.250;10.412;2023-06-24T00:46:13;17.50;99.90
3866;DHT22;1948;53.250;10.412;2023-06-24T00:48:42;17.40;99.90
3866;DHT22;1948;53.250;10.412;2023-06-24T00:51:09;17.40;99.90
3866;DHT22;1948;53.250;10.412;2023-06-24T00:53:37;17.40;99.90
3866;DHT22;1948;53.250;10.412;2023-06-24T00:56:05;17.30;99.90
3866;DHT22;1948;53.250;10.412;2023-06-24T00:58:34;17.20;99.90
3866;DHT22;1948;53.250;10.412;2023-06-24T01:01:03;17.10;99.90
3866;DHT22;1948;53.250;10.412;2023-06-24T01:03:36;17.10;99.90
3866;DHT22;1948;53.250;10.412;2023-06-24T01:06:03;17.00;99.90
3866;DHT22;1948;53.250;10.412;2023-06-24T01:08:34;17.00;99.90
3866;DHT22;1948;53.250;10.412;2023-06-24T01:11:01;16.90;99.90
3866;DHT22;1948;53.250;10.412;2023-06-24T01:13:28;16.90;99.90
3866;DHT22;1948;53.250;10.412;2023-06-24T01:16:05;16.80;99.90
3866;DHT22;1948;53.250;10.412;2023-06-24T01:18:50;16.80;99.90
3866;DHT22;1948;53.250;10.412;2023-06-24T01:21:25;16.70;99.90
3866;DHT22;1948;53.250;10.412;2023-06-24T01:30:23;16.70;99.90
3866;DHT22;1948;53.250;10.412;2023-06-24T01:33:21;16.60;99.90
3866;DHT22;1948;53.250;10.412;2023-06-24T01:35:54;16.50;99.90
3866;DHT22;1948;53.250;10.412;2023-06-24T01:38:26;16.50;99.90
3866;DHT22;1948;53.250;10.412;2023-06-24T01:41:03;16.50;99.90
3866;DHT22;1948;53.250;10.412;2023-06-24T01:43:32;16.40;99.90
3866;DHT22;1948;53.250;10.412;2023-06-24T01:46:03;16.40;99.90
3866;DHT22;1948;53.250;10.412;2023-06-24T01:48:35;16.40;99.90
3866;DHT22;1948;53.250;10.412;2023-06-24T01:51:09;16.30;99.90
3866;DHT22;1948;53.250;10.412;2023-06-24T01:53:41;16.30;99.90
3866;DHT22;1948;53.250;10.412;2023-06-24T01:56:14;16.30;99.90
3866;DHT22;1948;53.250;10.412;2023-06-24T01:58:43;16.20;99.90
3866;DHT22;1948;53.250;10.412;2023-06-24T02:01:15;16.20;99.90
3866;DHT22;1948;53.250;10.412;2023-06-24T02:03:43;16.20;99.90
3866;DHT22;1948;53.250;10.412;2023-06-24T02:06:13;16.20;99.90
3866;DHT22;1948;53.250;10.412;2023-06-24T02:08:43;16.20;99.90
3866;DHT22;1948;53.250;10.412;2023-06-24T02:11:11;16.30;99.90
3866;DHT22;1948;53.250;10.412;2023-06-24T02:13:42;16.40;99.90
3866;DHT22;1948;53.250;10.412;2023-06-24T02:16:10;16.40;99.90
3866;DHT22;1948;53.250;10.412;2023-06-24T02:18:39;16.40;99.90
3866;DHT22;1948;53.250;10.412;2023-06-24T02:21:10;16.40;99.90
3866;DHT22;1948;53.250;10.412;2023-06-24T02:23:37;16.40;99.90
3866;DHT22;1948;53.250;10.412;2023-06-24T02:26:07;16.40;99.90
3866;DHT22;1948;53.250;10.412;2023-06-24T02:28:38;16.30;99.90
3866;DHT22;1948;53.250;10.412;2023-06-24T02:31:06;16.30;99.90
3866;DHT22;1948;53.250;10.412;2023-06-24T02:33:37;16.30;99.90
3866;DHT22;1948;53.250;10.412;2023-06-24T02:36:04;16.20;99.90
3866;DHT22;1948;53.250;10.412;2023-06-24T02:38:34;16.20;99.90
3866;DHT22;1948;53.250;10.412;2023-06-24T02:41:03;16.20;99.90
3866;DHT22;1948;53.250;10.412;2023-06-24T02:43:33;16.20;99.90
3866;DHT22;1948;53.250;10.412;2023-06-24T02:46:03;16.20;99.90
3866;DHT22;1948;53.250;10.412;2023-06-24T02:48:36;16.20;99.90
3866;DHT22;1948;53.250;10.412;2023-06-24T02:51:06;16.20;99.90
3866;DHT22;1948;53.250;10.412;2023-06-24T02:53:34;16.10;99.90
3866;DHT22;1948;53.250;10.412;2023-06-24T02:56:02;16.20;99.90
3866;DHT22;1948;53.250;10.412;2023-06-24T02:58:33;16.20;99.90
3866;DHT22;1948;53.250;10.412;2023-06-24T03:01:01;16.20;99.90
3866;DHT22;1948;53.250;10.412;2023-06-24T03:03:35;16.20;99.90
3866;DHT22;1948;53.250;10.412;2023-06-24T03:06:03;16.20;99.90
3866;DHT22;1948;53.250;10.412;2023-06-24T03:08:31;16.20;99.90
3866;DHT22;1948;53.250;10.412;2023-06-24T03:11:01;16.10;99.90
3866;DHT22;1948;53.250;10.412;2023-06-24T03:13:27;16.10;99.90
3866;DHT22;1948;53.250;10.412;2023-06-24T03:15:57;16.10;99.90
3866;DHT22;1948;53.250;10.412;2023-06-24T03:18:24;16.10;99.90
3866;DHT22;1948;53.250;10.412;2023-06-24T03:20:51;16.00;99.90
3866;DHT22;1948;53.250;10.412;2023-06-24T03:23:19;15.90;99.90
3866;DHT22;1948;53.250;10.412;2023-06-24T03:25:46;15.90;99.90
3866;DHT22;1948;53.250;10.412;2023-06-24T03:28:13;15.90;99.90
3866;DHT22;1948;53.250;10.412;2023-06-24T03:30:43;15.90;99.90
3866;DHT22;1948;53.250;10.412;2023-06-24T03:33:13;16.00;99.90
3866;DHT22;1948;53.250;10.412;2023-06-24T03:35:43;16.00;99.90
3866;DHT22;1948;53.250;10.412;2023-06-24T03:38:10;16.00;99.90
3866;DHT22;1948;53.250;10.412;2023-06-24T03:40:40;16.00;99.90
3866;DHT22;1948;53.250;10.412;2023-06-24T03:43:08;15.90;99.90
3866;DHT22;1948;53.250;10.412;2023-06-24T03:45:35;15.90;99.90
3866;DHT22;1948;53.250;10.412;2023-06-24T03:48:03;15.90;99.90
3866;DHT22;1948;53.250;10.412;2023-06-24T03:50:30;15.90;99.90
3866;DHT22;1948;53.250;10.412;2023-06-24T03:52:57;16.00;99.90
3866;DHT22;1948;53.250;10.412;2023-06-24T03:55:24;16.00;99.90
3866;DHT22;1948;53.250;10.412;2023-06-24T03:57:51;16.10;99.90
3866;DHT22;1948;53.250;10.412;2023-06-24T04:00:21;16.20;99.90
3866;DHT22;1948;53.250;10.412;2023-06-24T04:02:50;16.20;99.90
3866;DHT22;1948;53.250;10.412;2023-06-24T04:05:20;16.30;99.90
3866;DHT22;1948;53.250;10.412;2023-06-24T04:07:50;16.40;99.90
3866;DHT22;1948;53.250;10.412;2023-06-24T04:10:19;16.30;99.90
3866;DHT22;1948;53.250;10.412;2023-06-24T04:12:48;16.30;99.90
3866;DHT22;1948;53.250;10.412;2023-06-24T04:15:18;16.30;99.90
3866;DHT22;1948;53.250;10.412;2023-06-24T04:17:47;16.30;99.90
3866;DHT22;1948;53.250;10.412;2023-06-24T04:20:16;16.30;99.90
3866;DHT22;1948;53.250;10.412;2023-06-24T04:22:46;16.40;99.90
3866;DHT22;1948;53.250;10.412;2023-06-24T04:25:15;16.40;99.90
3866;DHT22;1948;53.250;10.412;2023-06-24T04:27:42;16.60;99.90
3866;DHT22;1948;53.250;10.412;2023-06-24T04:30:09;16.60;99.90
3866;DHT22;1948;53.250;10.412;2023-06-24T04:32:37;16.70;99.90
3866;DHT22;1948;53.250;10.412;2023-06-24T04:35:04;16.80;99.90
3866;DHT22;1948;53.250;10.412;2023-06-24T04:37:31;16.90;99.90
3866;DHT22;1948;53.250;10.412;2023-06-24T04:39:58;17.10;99.90
3866;DHT22;1948;53.250;10.412;2023-06-24T04:42:25;17.20;99.90
3866;DHT22;1948;53.250;10.412;2023-06-24T04:44:52;17.20;99.90
3866;DHT22;1948;53.250;10.412;2023-06-24T04:47:19;17.30;99.90
3866;DHT22;1948;53.250;10.412;2023-06-24T04:49:46;17.40;99.90
3866;DHT22;1948;53.250;10.412;2023-06-24T04:52:14;17.50;99.90
3866;DHT22;1948;53.250;10.412;2023-06-24T04:54:43;17.70;99.90
3866;DHT22;1948;53.250;10.412;2023-06-24T04:57:27;17.70;99.90
3866;DHT22;1948;53.250;10.412;2023-06-24T05:00:02;17.80;99.90
3866;DHT22;1948;53.250;10.412;2023-06-24T05:02:31;17.80;99.90
3866;DHT22;1948;53.250;10.412;2023-06-24T05:04:59;17.80;99.90
3866;DHT22;1948;53.250;10.412;2023-06-24T05:07:26;17.90;99.90
3866;DHT22;1948;53.250;10.412;2023-06-24T05:09:53;18.00;99.90
3866;DHT22;1948;53.250;10.412;2023-06-24T05:12:20;18.00;99.90
3866;DHT22;1948;53.250;10.412;2023-06-24T05:14:51;18.10;99.90
3866;DHT22;1948;53.250;10.412;2023-06-24T05:17:21;18.10;99.90
3866;DHT22;1948;53.250;10.412;2023-06-24T05:19:51;18.30;99.90
3866;DHT22;1948;53.250;10.412;2023-06-24T05:22:18;18.40;99.90
3866;DHT22;1948;53.250;10.412;2023-06-24T05:24:45;18.40;99.90
3866;DHT22;1948;53.250;10.412;2023-06-24T05:27:14;18.40;99.90
3866;DHT22;1948;53.250;10.412;2023-06-24T05:29:41;18.50;99.90
3866;DHT22;1948;53.250;10.412;2023-06-24T05:32:08;18.70;99.90
3866;DHT22;1948;53.250;10.412;2023-06-24T05:34:35;18.80;99.90
3866;DHT22;1948;53.250;10.412;2023-06-24T05:37:05;18.80;99.90
3866;DHT22;1948;53.250;10.412;2023-06-24T05:39:35;18.90;99.90
3866;DHT22;1948;53.250;10.412;2023-06-24T05:42:04;18.90;99.90
3866;DHT22;1948;53.250;10.412;2023-06-24T05:44:31;19.00;99.90
3866;DHT22;1948;53.250;10.412;2023-06-24T05:46:58;19.10;99.90
3866;DHT22;1948;53.250;10.412;2023-06-24T05:49:25;19.20;99.90
3866;DHT22;1948;53.250;10.412;2023-06-24T05:51:55;19.20;99.90
3866;DHT22;1948;53.250;10.412;2023-06-24T05:54:25;19.20;99.90
3866;DHT22;1948;53.250;10.412;2023-06-24T05:56:52;19.40;99.90
3866;DHT22;1948;53.250;10.412;2023-06-24T05:59:22;19.60;99.90
3866;DHT22;1948;53.250;10.412;2023-06-24T06:01:49;19.70;99.90
3866;DHT22;1948;53.250;10.412;2023-06-24T06:04:18;19.90;99.90
3866;DHT22;1948;53.250;10.412;2023-06-24T06:06:48;20.10;99.90
3866;DHT22;1948;53.250;10.412;2023-06-24T06:09:17;20.30;99.90
3866;DHT22;1948;53.250;10.412;2023-06-24T06:11:47;20.40;99.90
3866;DHT22;1948;53.250;10.412;2023-06-24T06:14:18;20.70;99.90
3866;DHT22;1948;53.250;10.412;2023-06-24T06:16:45;20.80;99.90
3866;DHT22;1948;53.250;10.412;2023-06-24T06:19:12;21.00;99.90
3866;DHT22;1948;53.250;10.412;2023-06-24T06:21:39;21.10;99.90
3866;DHT22;1948;53.250;10.412;2023-06-24T06:24:07;21.00;99.90
3866;DHT22;1948;53.250;10.412;2023-06-24T06:26:34;20.90;99.90
3866;DHT22;1948;53.250;10.412;2023-06-24T06:29:01;20.90;99.90
3866;DHT22;1948;53.250;10.412;2023-06-24T06:31:30;20.80;99.90
3866;DHT22;1948;53.250;10.412;2023-06-24T06:33:57;20.80;99.90
3866;DHT22;1948;53.250;10.412;2023-06-24T06:36:25;20.90;99.90
3866;DHT22;1948;53.250;10.412;2023-06-24T06:38:57;20.90;99.90
3866;DHT22;1948;53.250;10.412;2023-06-24T06:41:30;21.00;99.90
3866;DHT22;1948;53.250;10.412;2023-06-24T06:44:00;21.10;99.90
3866;DHT22;1948;53.250;10.412;2023-06-24T06:46:27;21.20;99.90
3866;DHT22;1948;53.250;10.412;2023-06-24T06:48:57;21.30;99.90
3866;DHT22;1948;53.250;10.412;2023-06-24T06:51:24;21.50;99.90
3866;DHT22;1948;53.250;10.412;2023-06-24T06:53:52;21.60;99.90
3866;DHT22;1948;53.250;10.412;2023-06-24T06:56:22;21.60;99.90
3866;DHT22;1948;53.250;10.412;2023-06-24T06:58:53;21.80;99.90
3866;DHT22;1948;53.250;10.412;2023-06-24T07:01:22;21.90;99.90
3866;DHT22;1948;53.250;10.412;2023-06-24T07:03:50;22.10;99.90
3866;DHT22;1948;53.250;10.412;2023-06-24T07:06:20;22.30;99.90
3866;DHT22;1948;53.250;10.412;2023-06-24T07:08:47;22.40;99.90
3866;DHT22;1948;53.250;10.412;2023-06-24T07:11:17;22.60;99.90
3866;DHT22;1948;53.250;10.412;2023-06-24T07:13:47;22.80;99.90
3866;DHT22;1948;53.250;10.412;2023-06-24T07:16:17;22.90;99.90
3866;DHT22;1948;53.250;10.412;2023-06-24T07:18:45;23.10;99.90
3866;DHT22;1948;53.250;10.412;2023-06-24T07:21:12;23.00;99.90
3866;DHT22;1948;53.250;10.412;2023-06-24T07:23:39;23.00;99.90
3866;DHT22;1948;53.250;10.412;2023-06-24T07:26:07;23.00;99.90
3866;DHT22;1948;53.250;10.412;2023-06-24T07:28:35;22.90;99.90
3866;DHT22;1948;53.250;10.412;2023-06-24T07:31:02;22.90;99.90
3866;DHT22;1948;53.250;10.412;2023-06-24T07:33:29;22.90;99.90
3866;DHT22;1948;53.250;10.412;2023-06-24T07:35:58;22.90;99.90
3866;DHT22;1948;53.250;10.412;2023-06-24T07:38:25;23.20;99.90
3866;DHT22;1948;53.250;10.412;2023-06-24T07:40:52;23.20;99.90
3866;DHT22;1948;53.250;10.412;2023-06-24T07:43:25;23.20;99.90
3866;DHT22;1948;53.250;10.412;2023-06-24T07:45:56;23.10;99.90
3866;DHT22;1948;53.250;10.412;2023-06-24T07:48:23;23.10;99.90
3866;DHT22;1948;53.250;10.412;2023-06-24T07:50:52;23.30;99.90
3866;DHT22;1948;53.250;10.412;2023-06-24T07:53:19;23.30;99.90
3866;DHT22;1948;53.250;10.412;2023-06-24T07:55:46;23.40;99.90
3866;DHT22;1948;53.250;10.412;2023-06-24T07:58:13;23.10;99.90
3866;DHT22;1948;53.250;10.412;2023-06-24T08:00:40;23.00;99.90
3866;DHT22;1948;53.250;10.412;2023-06-24T08:03:07;22.80;99.90
3866;DHT22;1948;53.250;10.412;2023-06-24T08:05:35;22.60;99.90
3866;DHT22;1948;53.250;10.412;2023-06-24T08:08:02;22.70;99.90
3866;DHT22;1948;53.250;10.412;2023-06-24T08:10:29;22.70;99.90
3866;DHT22;1948;53.250;10.412;2023-06-24T08:12:56;22.70;99.90
3866;DHT22;1948;53.250;10.412;2023-06-24T08:15:26;22.70;99.90
3866;DHT22;1948;53.250;10.412;2023-06-24T08:17:56;22.80;99.90
3866;DHT22;1948;53.250;10.412;2023-06-24T08:20:23;22.90;99.90
3866;DHT22;1948;53.250;10.412;2023-06-24T08:22:51;22.90;99.90
3866;DHT22;1948;53.250;10.412;2023-06-24T08:25:18;22.90;99.90
3866;DHT22;1948;53.250;10.412;2023-06-24T08:27:46;23.20;99.90
3866;DHT22;1948;53.250;10.412;2023-06-24T08:30:16;23.40;99.90
3866;DHT22;1948;53.250;10.412;2023-06-24T08:32:43;23.70;99.90
3866;DHT22;1948;53.250;10.412;2023-06-24T08:35:10;24.00;99.90
3866;DHT22;1948;53.250;10.412;2023-06-24T08:37:42;24.30;99.90
3866;DHT22;1948;53.250;10.412;2023-06-24T08:40:10;24.40;99.90
3866;DHT22;1948;53.250;10.412;2023-06-24T08:42:40;24.70;99.90
3866;DHT22;1948;53.250;10.412;2023-06-24T08:45:10;24.80;99.90
3866;DHT22;1948;53.250;10.412;2023-06-24T08:47:37;24.90;99.90
3866;DHT22;1948;53.250;10.412;2023-06-24T08:50:12;25.00;99.90
3866;DHT22;1948;53.250;10.412;2023-06-24T08:52:45;25.20;99.90
3866;DHT22;1948;53.250;10.412;2023-06-24T08:55:16;25.40;99.90
3866;DHT22;1948;53.250;10.412;2023-06-24T08:57:46;25.30;99.90
3866;DHT22;1948;53.250;10.412;2023-06-24T09:00:14;25.50;99.90
3866;DHT22;1948;53.250;10.412;2023-06-24T09:02:42;25.70;99.90
3866;DHT22;1948;53.250;10.412;2023-06-24T09:05:12;25.80;99.90
3866;DHT22;1948;53.250;10.412;2023-06-24T09:07:41;25.90;99.90
3866;DHT22;1948;53.250;10.412;2023-06-24T09:10:09;26.00;99.90
3866;DHT22;1948;53.250;10.412;2023-06-24T09:12:36;25.60;99.90
3866;DHT22;1948;53.250;10.412;2023-06-24T09:15:04;25.30;99.90
3866;DHT22;1948;53.250;10.412;2023-06-24T09:17:31;25.30;99.90
3866;DHT22;1948;53.250;10.412;2023-06-24T09:20:08;25.20;99.90
3866;DHT22;1948;53.250;10.412;2023-06-24T09:22:40;25.50;99.90
3866;DHT22;1948;53.250;10.412;2023-06-24T09:25:16;25.70;99.90
3866;DHT22;1948;53.250;10.412;2023-06-24T09:27:50;25.40;99.90
3866;DHT22;1948;53.250;10.412;2023-06-24T09:30:20;25.30;99.90
3866;DHT22;1948;53.250;10.412;2023-06-24T09:32:49;25.60;99.90
3866;DHT22;1948;53.250;10.412;2023-06-24T09:35:25;25.70;99.90
3866;DHT22;1948;53.250;10.412;2023-06-24T09:37:56;25.70;99.90
3866;DHT22;1948;53.250;10.412;2023-06-24T09:40:28;25.20;99.90
3866;DHT22;1948;53.250;10.412;2023-06-24T09:43:00;25.30;99.90
3866;DHT22;1948;53.250;10.412;2023-06-24T09:45:32;25.70;99.90
3866;DHT22;1948;53.250;10.412;2023-06-24T09:48:00;25.70;99.90
3866;DHT22;1948;53.250;10.412;2023-06-24T09:50:27;25.70;99.90
3866;DHT22;1948;53.250;10.412;2023-06-24T09:52:57;25.70;99.90
3866;DHT22;1948;53.250;10.412;2023-06-24T09:55:28;25.60;99.90
3866;DHT22;1948;53.250;10.412;2023-06-24T09:57:55;25.90;99.90
3866;DHT22;1948;53.250;10.412;2023-06-24T10:00:24;26.30;99.90
3866;DHT22;1948;53.250;10.412;2023-06-24T10:02:53;26.60;99.90
3866;DHT22;1948;53.250;10.412;2023-06-24T10:05:26;26.70;99.90
3866;DHT22;1948;53.250;10.412;2023-06-24T10:07:56;26.50;99.90
3866;DHT22;1948;53.250;10.412;2023-06-24T10:10:25;26.50;99.90
3866;DHT22;1948;53.250;10.412;2023-06-24T10:12:52;26.70;99.90
3866;DHT22;1948;53.250;10.412;2023-06-24T10:15:22;26.50;99.90
3866;DHT22;1948;53.250;10.412;2023-06-24T10:17:50;26.70;99.90
3866;DHT22;1948;53.250;10.412;2023-06-24T10:20:36;26.80;99.90
3866;DHT22;1948;53.250;10.412;2023-06-24T10:23:06;27.20;99.90
3866;DHT22;1948;53.250;10.412;2023-06-24T10:25:37;27.40;99.90
3866;DHT22;1948;53.250;10.412;2023-06-24T10:28:04;27.70;99.90
3866;DHT22;1948;53.250;10.412;2023-06-24T10:30:36;27.60;99.90
3866;DHT22;1948;53.250;10.412;2023-06-24T10:33:03;27.70;99.90
3866;DHT22;1948;53.250;10.412;2023-06-24T10:35:30;27.80;99.90
3866;DHT22;1948;53.250;10.412;2023-06-24T10:38:00;27.80;99.90
3866;DHT22;1948;53.250;10.412;2023-06-24T10:40:41;28.00;99.90
3866;DHT22;1948;53.250;10.412;2023-06-24T10:43:29;28.30;99.90
3866;DHT22;1948;53.250;10.412;2023-06-24T10:45:57;28.40;99.90
3866;DHT22;1948;53.250;10.412;2023-06-24T10:48:28;28.60;99.90
3866;DHT22;1948;53.250;10.412;2023-06-24T10:50:58;28.90;99.90
3866;DHT22;1948;53.250;10.412;2023-06-24T10:53:25;28.70;99.90
3866;DHT22;1948;53.250;10.412;2023-06-24T10:55:57;28.60;99.90
3866;DHT22;1948;53.250;10.412;2023-06-24T10:58:27;28.10;99.90
3866;DHT22;1948;53.250;10.412;2023-06-24T11:01:07;28.00;99.90
3866;DHT22;1948;53.250;10.412;2023-06-24T11:03:35;27.90;99.90
3866;DHT22;1948;53.250;10.412;2023-06-24T11:06:04;28.10;99.90
3866;DHT22;1948;53.250;10.412;2023-06-24T11:08:32;28.30;99.90
3866;DHT22;1948;53.250;10.412;2023-06-24T11:11:00;28.30;99.90
3866;DHT22;1948;53.250;10.412;2023-06-24T11:13:33;28.60;99.90
3866;DHT22;1948;53.250;10.412;2023-06-24T11:16:00;28.90;99.90
3866;DHT22;1948;53.250;10.412;2023-06-24T11:18:37;29.20;99.90
3866;DHT22;1948;53.250;10.412;2023-06-24T11:21:11;29.40;99.90
3866;DHT22;1948;53.250;10.412;2023-06-24T11:23:38;29.80;99.90
3866;DHT22;1948;53.250;10.412;2023-06-24T11:26:10;30.00;99.90
3866;DHT22;1948;53.250;10.412;2023-06-24T11:28:40;30.30;99.90
3866;DHT22;1948;53.250;10.412;2023-06-24T11:31:09;30.60;99.90
3866;DHT22;1948;53.250;10.412;2023-06-24T11:33:43;30.30;99.90
3866;DHT22;1948;53.250;10.412;2023-06-24T11:36:22;30.00;99.90
3866;DHT22;1948;53.250;10.412;2023-06-24T11:38:51;30.20;99.90
3866;DHT22;1948;53.250;10.412;2023-06-24T11:41:21;30.50;99.90
3866;DHT22;1948;53.250;10.412;2023-06-24T11:43:48;30.90;99.90
3866;DHT22;1948;53.250;10.412;2023-06-24T11:48:53;31.10;99.90
3866;DHT22;1948;53.250;10.412;2023-06-24T11:51:29;31.00;99.90
3866;DHT22;1948;53.250;10.412;2023-06-24T11:54:04;31.00;99.90
3866;DHT22;1948;53.250;10.412;2023-06-24T11:56:39;31.20;99.90
3866;DHT22;1948;53.250;10.412;2023-06-24T11:59:16;31.30;99.90
3866;DHT22;1948;53.250;10.412;2023-06-24T12:01:55;31.40;99.90
3866;DHT22;1948;53.250;10.412;2023-06-24T12:04:33;31.50;99.90
3866;DHT22;1948;53.250;10.412;2023-06-24T12:07:03;31.50;99.90
3866;DHT22;1948;53.250;10.412;2023-06-24T12:09:30;31.50;99.90
3866;DHT22;1948;53.250;10.412;2023-06-24T12:11:58;31.60;99.90
3866;DHT22;1948;53.250;10.412;2023-06-24T12:14:27;31.40;99.90
3866;DHT22;1948;53.250;10.412;2023-06-24T12:16:54;31.40;99.90
3866;DHT22;1948;53.250;10.412;2023-06-24T12:19:21;31.30;99.90
3866;DHT22;1948;53.250;10.412;2023-06-24T12:21:48;31.30;99.90
3866;DHT22;1948;53.250;10.412;2023-06-24T12:24:15;31.40;99.90
3866;DHT22;1948;53.250;10.412;2023-06-24T12:26:42;31.30;99.90
3866;DHT22;1948;53.250;10.412;2023-06-24T12:29:13;31.00;99.90
3866;DHT22;1948;53.250;10.412;2023-06-24T12:31:43;30.90;99.90
3866;DHT22;1948;53.250;10.412;2023-06-24T12:34:12;30.90;99.90
3866;DHT22;1948;53.250;10.412;2023-06-24T12:36:39;30.80;99.90
3866;DHT22;1948;53.250;10.412;2023-06-24T12:39:08;30.80;99.90
3866;DHT22;1948;53.250;10.412;2023-06-24T12:41:35;30.70;99.90
3866;DHT22;1948;53.250;10.412;2023-06-24T12:44:07;30.90;99.90
3866;DHT22;1948;53.250;10.412;2023-06-24T12:46:38;30.90;99.90
3866;DHT22;1948;53.250;10.412;2023-06-24T12:49:06;30.80;99.90
3866;DHT22;1948;53.250;10.412;2023-06-24T12:51:35;31.00;99.90
3866;DHT22;1948;53.250;10.412;2023-06-24T12:54:04;31.10;99.90
3866;DHT22;1948;53.250;10.412;2023-06-24T12:56:34;31.30;99.90
3866;DHT22;1948;53.250;10.412;2023-06-24T12:59:01;31.30;99.90
3866;DHT22;1948;53.250;10.412;2023-06-24T13:01:29;31.40;99.90
3866;DHT22;1948;53.250;10.412;2023-06-24T13:03:56;31.30;99.90
3866;DHT22;1948;53.250;10.412;2023-06-24T13:06:24;31.20;99.90
3866;DHT22;1948;53.250;10.412;2023-06-24T13:08:51;31.10;99.90
3866;DHT22;1948;53.250;10.412;2023-06-24T13:11:18;31.00;99.90
3866;DHT22;1948;53.250;10.412;2023-06-24T13:13:45;31.00;99.90
3866;DHT22;1948;53.250;10.412;2023-06-24T13:16:12;31.10;99.90
3866;DHT22;1948;53.250;10.412;2023-06-24T13:18:39;31.20;99.90
3866;DHT22;1948;53.250;10.412;2023-06-24T13:21:06;31.30;99.90
3866;DHT22;1948;53.250;10.412;2023-06-24T13:23:42;31.30;99.90
3866;DHT22;1948;53.250;10.412;2023-06-24T13:26:09;31.20;99.90
3866;DHT22;1948;53.250;10.412;2023-06-24T13:28:38;31.30;99.90
3866;DHT22;1948;53.250;10.412;2023-06-24T13:31:06;31.30;99.90
3866;DHT22;1948;53.250;10.412;2023-06-24T13:33:38;31.20;99.90
3866;DHT22;1948;53.250;10.412;2023-06-24T13:36:25;31.20;99.90
3866;DHT22;1948;53.250;10.412;2023-06-24T13:38:58;31.20;99.90
3866;DHT22;1948;53.250;10.412;2023-06-24T13:41:25;31.20;99.90
3866;DHT22;1948;53.250;10.412;2023-06-24T13:43:57;31.10;99.90
3866;DHT22;1948;53.250;10.412;2023-06-24T13:46:28;31.20;99.90
3866;DHT22;1948;53.250;10.412;2023-06-24T13:48:59;31.00;99.90
3866;DHT22;1948;53.250;10.412;2023-06-24T13:51:31;31.00;99.90
3866;DHT22;1948;53.250;10.412;2023-06-24T13:53:58;30.80;99.90
3866;DHT22;1948;53.250;10.412;2023-06-24T13:56:26;30.80;99.90
3866;DHT22;1948;53.250;10.412;2023-06-24T13:58:58;30.90;99.90
3866;DHT22;1948;53.250;10.412;2023-06-24T14:01:28;30.90;99.90
3866;DHT22;1948;53.250;10.412;2023-06-24T14:03:55;30.90;99.90
3866;DHT22;1948;53.250;10.412;2023-06-24T14:06:25;30.80;99.90
3866;DHT22;1948;53.250;10.412;2023-06-24T14:08:53;30.60;99.90
3866;DHT22;1948;53.250;10.412;2023-06-24T14:11:20;30.50;99.90
3866;DHT22;1948;53.250;10.412;2023-06-24T14:13:47;30.30;99.90
3866;DHT22;1948;53.250;10.412;2023-06-24T14:16:16;30.30;99.90
3866;DHT22;1948;53.250;10.412;2023-06-24T14:18:46;30.40;99.90
3866;DHT22;1948;53.250;10.412;2023-06-24T14:21:13;30.50;99.90
3866;DHT22;1948;53.250;10.412;2023-06-24T14:23:43;30.50;99.90
3866;DHT22;1948;53.250;10.412;2023-06-24T14:26:14;30.40;99.90
3866;DHT22;1948;53.250;10.412;2023-06-24T14:28:44;30.50;99.90
3866;DHT22;1948;53.250;10.412;2023-06-24T14:31:11;30.60;99.90
3866;DHT22;1948;53.250;10.412;2023-06-24T14:33:38;30.50;99.90
3866;DHT22;1948;53.250;10.412;2023-06-24T14:36:05;30.50;99.90
3866;DHT22;1948;53.250;10.412;2023-06-24T14:38:35;30.60;99.90
3866;DHT22;1948;53.250;10.412;2023-06-24T14:41:04;30.50;99.90
3866;DHT22;1948;53.250;10.412;2023-06-24T14:43:34;30.50;99.90
3866;DHT22;1948;53.250;10.412;2023-06-24T14:46:03;30.60;99.90
3866;DHT22;1948;53.250;10.412;2023-06-24T14:48:33;30.70;99.90
3866;DHT22;1948;53.250;10.412;2023-06-24T14:51:00;30.70;99.90
3866;DHT22;1948;53.250;10.412;2023-06-24T14:53:33;30.60;99.90
3866;DHT22;1948;53.250;10.412;2023-06-24T14:56:00;30.70;99.90
3866;DHT22;1948;53.250;10.412;2023-06-24T14:58:27;30.60;99.90
3866;DHT22;1948;53.250;10.412;2023-06-24T15:00:56;30.50;99.90
3866;DHT22;1948;53.250;10.412;2023-06-24T15:03:23;30.40;99.90
3866;DHT22;1948;53.250;10.412;2023-06-24T15:05:53;30.40;99.90
3866;DHT22;1948;53.250;10.412;2023-06-24T15:08:20;30.40;99.90
3866;DHT22;1948;53.250;10.412;2023-06-24T15:10:49;30.30;99.90
3866;DHT22;1948;53.250;10.412;2023-06-24T15:13:19;30.10;99.90
3866;DHT22;1948;53.250;10.412;2023-06-24T15:15:48;29.90;99.90
3866;DHT22;1948;53.250;10.412;2023-06-24T15:18:16;29.90;99.90
3866;DHT22;1948;53.250;10.412;2023-06-24T15:20:44;30.00;99.90
3866;DHT22;1948;53.250;10.412;2023-06-24T15:23:12;30.10;99.90
3866;DHT22;1948;53.250;10.412;2023-06-24T15:25:39;30.20;99.90
3866;DHT22;1948;53.250;10.412;2023-06-24T15:28:07;30.20;99.90
3866;DHT22;1948;53.250;10.412;2023-06-24T15:30:35;30.20;99.90
3866;DHT22;1948;53.250;10.412;2023-06-24T15:33:03;30.20;99.90
3866;DHT22;1948;53.250;10.412;2023-06-24T15:35:33;30.30;99.90
3866;DHT22;1948;53.250;10.412;2023-06-24T15:38:03;30.30;99.90
3866;DHT22;1948;53.250;10.412;2023-06-24T15:40:33;30.30;99.90
3866;DHT22;1948;53.250;10.412;2023-06-24T15:43:03;30.40;99.90
3866;DHT22;1948;53.250;10.412;2023-06-24T15:45:33;30.40;99.90
3866;DHT22;1948;53.250;10.412;2023-06-24T15:48:00;30.30;99.90
3866;DHT22;1948;53.250;10.412;2023-06-24T15:50:27;30.20;99.90
3866;DHT22;1948;53.250;10.412;2023-06-24T15:52:54;30.30;99.90
3866;DHT22;1948;53.250;10.412;2023-06-24T15:55:25;30.20;99.90
3866;DHT22;1948;53.250;10.412;2023-06-24T15:57:54;30.20;99.90
3866;DHT22;1948;53.250;10.412;2023-06-24T16:00:22;30.20;99.90
3866;DHT22;1948;53.250;10.412;2023-06-24T16:02:49;30.00;99.90
3866;DHT22;1948;53.250;10.412;2023-06-24T16:05:21;29.90;99.90
3866;DHT22;1948;53.250;10.412;2023-06-24T16:07:48;29.90;99.90